DAUH Airport Information

Runway Information
Runway 01 Length 0 ft width 0 ft
Elevation 459 ft Threshold 0 ft Heading 0
Runway 19 Length 0 ft Width 0 ft
Elevation 456 ft Threshold 0 ft Heading 0
Runway 18 Length 9843 ft width 148 ft
Elevation 459 ft Threshold 0 ft Heading 184
Runway 36 Length 9843 ft Width 148 ft
Elevation 456 ft Threshold 0 ft Heading 4
Airport Frequencies
Type APP Name HASSI MESS Frequency 120 MHZ
Type RDO Name HASSI MESS Frequency 889.4 MHZ
Type TWR Name HASSI MESS Frequency 118.1 MHZ
Airport Navaids
Type NDB Name Hassi Messaoud Frequency 390 KHZ
Type VOR-DME Name Hassi Messaoud Frequency 114700 KHZ
Airport Weather Information & NOTAM
ADDS - METARS form results

(1023 UTC 24 September 2020)
Data provider http://aviationweather.gov/metar/data/
 
METAR text: DAUH 241000Z 16011KT CAVOK 39/04 Q1015
Conditions at: DAUH (HASSI-MESSAOUD/I, DZ) observed 1000 UTC 24 September 2020
Temperature: 39.0°C (102°F)
Dewpoint: 4.0°C (39°F) [RH = 12%]
Pressure (altimeter): 29.97 inches Hg (1015.0 mb)
Winds: from the SSE (160 degrees) at 13 MPH (11 knots; 5.7 m/s)
Visibility: 6 or more miles (10+ km)
Ceiling: ceiling and visibility are OK
Clouds: unknown
Weather: no significant weather observed at this time

METAR text: DAUH 240930Z 15011KT CAVOK 37/06 Q1015
Conditions at: DAUH (HASSI-MESSAOUD/I, DZ) observed 0930 UTC 24 September 2020
Temperature: 37.0°C (99°F)
Dewpoint: 6.0°C (43°F) [RH = 15%]
Pressure (altimeter): 29.97 inches Hg (1015.0 mb)
Winds: from the SSE (150 degrees) at 13 MPH (11 knots; 5.7 m/s)
Visibility: 6 or more miles (10+ km)
Ceiling: ceiling and visibility are OK
Clouds: unknown
Weather: no significant weather observed at this time

Forecast for: DAUH (HASSI-MESSAOUD/I, DZ)
Text: TAF DAUH 240500Z 2406/2506 08008KT CAVOK
Forecast period: 0600 to 0900 UTC 24 September 2020
Forecast type: FROM: standard forecast or significant change
Winds: from the E (80 degrees) at 9 MPH (8 knots; 4.1 m/s)
Visibility: 6 or more miles (10+ km)
Ceiling: unknown
Clouds: missing
Weather: NSW  (no significant weather)
Text: BECMG 2409/2412 22012KT
Forecast period: 0900 to 1800 UTC 24 September 2020
Forecast type: BECOMING: Conditions expected to become as follows by 1200 UTC 24 September 2020
Winds: from the SW (220 degrees) at 14 MPH (12 knots; 6.2 m/s)
Visibility: 6 or more miles (10+ km)
Ceiling: unknown
Clouds: missing
Weather: NSW  (no significant weather)
Text: BECMG 2418/2421 VRB02KT
Forecast period: 1800 UTC 24 September 2020 to 0600 UTC 25 September 2020
Forecast type: BECOMING: Conditions expected to become as follows by 2100 UTC 24 September 2020
Winds: variable direction winds at 2 MPH (2 knots; 1.0 m/s)
Visibility: 6 or more miles (10+ km)
Ceiling: unknown
Clouds: missing
Weather: NSW  (no significant weather)